createdAt,value
2022-12-09T00:00:27.199Z,13.73
2022-12-09T00:02:00.342Z,14.57
2022-12-09T00:03:33.872Z,13.80
2022-12-09T00:05:07.814Z,15.97
2022-12-09T00:06:41.058Z,14.47
2022-12-09T00:08:14.321Z,15.40
2022-12-09T00:09:47.782Z,15.20
2022-12-09T00:11:22.693Z,13.20
2022-12-09T00:12:57.657Z,13.20
2022-12-09T00:14:30.904Z,14.90
2022-12-09T00:16:07.603Z,17.43
2022-12-09T00:17:40.916Z,15.23
2022-12-09T00:19:14.436Z,14.03
2022-12-09T00:20:47.461Z,14.47
2022-12-09T00:22:20.597Z,15.57
2022-12-09T00:23:55.767Z,13.10
2022-12-09T00:25:29.144Z,17.97
2022-12-09T00:27:02.251Z,15.47
2022-12-09T00:28:36.793Z,15.70
2022-12-09T00:30:11.308Z,15.50
2022-12-09T00:31:45.128Z,15.60
2022-12-09T00:33:18.556Z,16.40
2022-12-09T00:34:51.788Z,15.93
2022-12-09T00:36:25.802Z,14.07
2022-12-09T00:37:59.076Z,16.20
2022-12-09T00:39:32.187Z,14.03
2022-12-09T00:41:06.102Z,16.33
2022-12-09T00:42:39.256Z,15.83
2022-12-09T00:44:13.940Z,15.53
2022-12-09T00:45:46.347Z,14.93
2022-12-09T00:47:20.935Z,15.83
2022-12-09T00:48:54.339Z,16.80
2022-12-09T00:50:27.796Z,15.90
2022-12-09T00:52:01.079Z,16.60
2022-12-09T00:53:34.678Z,15.97
2022-12-09T00:55:08.290Z,17.03
2022-12-09T00:56:41.458Z,13.70
2022-12-09T00:58:15.030Z,16.37
2022-12-09T00:59:49.516Z,15.33
2022-12-09T01:01:22.662Z,14.67
2022-12-09T01:02:56.092Z,15.90
2022-12-09T01:04:29.765Z,16.17
2022-12-09T01:06:08.271Z,14.80
2022-12-09T01:07:41.388Z,14.90
2022-12-09T01:09:14.772Z,14.33
2022-12-09T01:10:47.494Z,13.97
2022-12-09T01:12:20.621Z,18.73
2022-12-09T01:13:54.677Z,14.67
2022-12-09T01:15:29.206Z,16.10
2022-12-09T01:17:02.599Z,15.10
2022-12-09T01:18:35.728Z,15.57
2022-12-09T01:20:11.206Z,15.40
2022-12-09T01:21:44.969Z,14.10
2022-12-09T01:23:18.039Z,15.97
2022-12-09T01:24:51.862Z,15.70
2022-12-09T01:26:25.287Z,16.73
2022-12-09T01:27:58.728Z,16.67
2022-12-09T01:29:31.806Z,14.70
2022-12-09T01:31:12.169Z,16.93
2022-12-09T01:32:46.995Z,15.47
2022-12-09T01:34:20.302Z,16.67
2022-12-09T01:35:53.678Z,18.07
2022-12-09T01:37:27.079Z,16.93
2022-12-09T01:39:01.396Z,15.43
2022-12-09T01:40:34.744Z,16.23
2022-12-09T01:42:08.065Z,15.77
2022-12-09T01:43:42.143Z,15.97
2022-12-09T01:45:38.920Z,15.77
2022-12-09T01:47:23.120Z,17.27
2022-12-09T01:48:55.384Z,16.43
2022-12-09T01:50:29.394Z,13.70
2022-12-09T01:52:08.729Z,14.90
2022-12-09T01:53:44.605Z,14.97
2022-12-09T01:55:19.220Z,15.37
2022-12-09T01:56:53.134Z,16.07
2022-12-09T01:58:26.642Z,15.30
2022-12-09T02:00:00.157Z,15.67
2022-12-09T02:01:33.628Z,17.20
2022-12-09T02:03:09.134Z,15.93
2022-12-09T02:04:46.106Z,14.33
2022-12-09T02:06:19.110Z,16.20
2022-12-09T02:07:52.841Z,14.57
2022-12-09T02:09:26.447Z,15.67
2022-12-09T02:11:11.254Z,15.27
2022-12-09T02:12:58.112Z,14.37
2022-12-09T02:14:36.808Z,15.00
2022-12-09T02:16:13.747Z,15.83
2022-12-09T02:17:52.492Z,15.03
2022-12-09T02:19:46.347Z,13.77
2022-12-09T02:21:26.637Z,14.00
2022-12-09T02:23:08.726Z,13.03
2022-12-09T02:24:46.459Z,15.37
2022-12-09T02:26:25.959Z,13.50
2022-12-09T02:28:17.127Z,14.07
2022-12-09T02:30:06.987Z,12.67
2022-12-09T02:32:08.953Z,13.10
2022-12-09T02:33:58.222Z,12.60
2022-12-09T02:35:38.458Z,13.63
2022-12-09T02:37:17.743Z,13.00
2022-12-09T02:38:55.733Z,12.80
2022-12-09T02:40:35.508Z,12.97
2022-12-09T02:42:10.869Z,13.43
2022-12-09T02:43:50.380Z,13.77
2022-12-09T02:45:32.262Z,13.43
2022-12-09T02:47:10.986Z,13.60
2022-12-09T02:48:49.760Z,12.03
2022-12-09T02:50:27.305Z,13.80
2022-12-09T02:52:00.845Z,12.13
2022-12-09T02:53:35.767Z,11.83
2022-12-09T02:55:12.280Z,13.23
2022-12-09T02:56:52.894Z,12.30
2022-12-09T02:58:26.654Z,13.47
2022-12-09T02:59:58.934Z,11.97
2022-12-09T03:01:39.307Z,12.50
2022-12-09T03:03:15.889Z,13.07
2022-12-09T03:04:58.438Z,13.87
2022-12-09T03:06:41.479Z,12.63
2022-12-09T03:08:23.939Z,12.80
2022-12-09T03:10:04.946Z,14.43
2022-12-09T03:11:40.675Z,13.33
2022-12-09T03:13:19.531Z,13.37
2022-12-09T03:14:54.042Z,13.67
2022-12-09T03:16:34.143Z,15.20
2022-12-09T03:18:10.860Z,13.93
2022-12-09T03:19:48.400Z,15.17
2022-12-09T03:21:25.365Z,12.73
2022-12-09T03:23:02.729Z,12.27
2022-12-09T03:24:40.273Z,13.10
2022-12-09T03:26:16.279Z,13.17
2022-12-09T03:27:52.946Z,12.07
2022-12-09T03:29:28.144Z,14.07
2022-12-09T03:31:05.201Z,14.10
2022-12-09T03:32:40.370Z,14.90
2022-12-09T03:34:18.339Z,12.97
2022-12-09T03:35:54.171Z,11.93
2022-12-09T03:37:28.691Z,12.37
2022-12-09T03:39:04.216Z,12.80
2022-12-09T03:40:37.190Z,13.70
2022-12-09T03:42:17.094Z,13.73
2022-12-09T03:43:53.650Z,12.67
2022-12-09T03:45:27.683Z,14.17
2022-12-09T03:47:01.115Z,14.30
2022-12-09T03:48:34.618Z,13.07
2022-12-09T03:50:10.345Z,12.53
2022-12-09T03:51:47.482Z,14.93
2022-12-09T03:53:26.826Z,14.13
2022-12-09T03:55:06.789Z,15.57
2022-12-09T03:56:42.358Z,14.03
2022-12-09T03:58:17.358Z,14.20
2022-12-09T03:59:54.734Z,12.90
2022-12-09T04:01:29.700Z,12.03
2022-12-09T04:03:03.040Z,15.10
2022-12-09T04:04:40.180Z,15.10
2022-12-09T04:06:12.549Z,12.17
2022-12-09T04:07:45.683Z,13.03
2022-12-09T04:09:18.033Z,14.80
2022-12-09T04:10:52.718Z,13.00
2022-12-09T04:12:25.981Z,13.53
2022-12-09T04:13:59.055Z,14.27
2022-12-09T04:15:32.195Z,12.33
2022-12-09T04:17:05.649Z,12.03
2022-12-09T04:18:38.142Z,13.83
2022-12-09T04:20:13.199Z,12.33
2022-12-09T04:21:48.405Z,13.20
2022-12-09T04:23:21.617Z,13.27
2022-12-09T04:24:54.838Z,14.40
2022-12-09T04:26:29.269Z,13.80
2022-12-09T04:28:02.924Z,14.60
2022-12-09T04:29:36.033Z,14.57
2022-12-09T04:31:12.826Z,13.23
2022-12-09T04:32:46.197Z,14.60
2022-12-09T04:34:19.814Z,15.30
2022-12-09T04:35:52.911Z,16.53
2022-12-09T04:37:25.960Z,14.70
2022-12-09T04:38:59.318Z,15.67
2022-12-09T04:40:34.207Z,15.80
2022-12-09T04:42:08.849Z,15.87
2022-12-09T04:43:42.629Z,15.83
2022-12-09T04:45:15.988Z,15.40
2022-12-09T04:46:49.232Z,15.20
2022-12-09T04:48:21.804Z,16.03
2022-12-09T04:49:55.007Z,17.33
2022-12-09T04:51:29.021Z,14.80
2022-12-09T04:53:04.499Z,14.27
2022-12-09T04:54:37.923Z,16.10
2022-12-09T04:56:15.939Z,18.40
2022-12-09T04:57:50.654Z,17.33
2022-12-09T04:59:23.810Z,15.83
2022-12-09T05:00:57.468Z,17.57
2022-12-09T05:02:30.111Z,17.83
2022-12-09T05:04:04.250Z,20.73
2022-12-09T05:05:41.101Z,18.10
2022-12-09T05:07:14.696Z,17.77
2022-12-09T05:08:49.122Z,17.17
2022-12-09T05:10:22.334Z,18.63
2022-12-09T05:11:58.135Z,20.03
2022-12-09T05:13:33.701Z,17.73
2022-12-09T05:15:07.806Z,15.67
2022-12-09T05:16:41.362Z,17.57
2022-12-09T05:18:14.946Z,19.07
2022-12-09T05:19:48.118Z,14.33
2022-12-09T05:21:22.577Z,16.97
2022-12-09T05:22:56.114Z,16.27
2022-12-09T05:24:29.546Z,16.50
2022-12-09T05:26:03.138Z,14.73
2022-12-09T05:27:36.626Z,14.63
2022-12-09T05:29:11.133Z,13.33
2022-12-09T05:30:43.389Z,14.13
2022-12-09T05:32:16.906Z,16.73
2022-12-09T05:33:52.415Z,15.73
2022-12-09T05:35:25.805Z,15.80
2022-12-09T05:37:00.028Z,18.43
2022-12-09T05:38:33.390Z,17.07
2022-12-09T05:40:08.278Z,15.00
2022-12-09T05:41:43.441Z,15.30
2022-12-09T05:43:16.700Z,17.13
2022-12-09T05:44:51.457Z,16.40
2022-12-09T05:46:24.981Z,17.30
2022-12-09T05:47:58.410Z,17.60
2022-12-09T05:49:32.197Z,15.33
2022-12-09T05:51:08.137Z,15.40
2022-12-09T05:52:41.485Z,16.30
2022-12-09T05:54:14.672Z,16.40
2022-12-09T05:55:48.191Z,17.37
2022-12-09T05:57:21.974Z,17.67
2022-12-09T05:58:55.755Z,20.27
2022-12-09T06:00:31.420Z,19.43
2022-12-09T06:02:09.761Z,18.53
2022-12-09T06:03:43.878Z,18.83
2022-12-09T06:05:17.346Z,24.03
2022-12-09T06:06:50.876Z,24.27
2022-12-09T06:08:24.604Z,22.10
2022-12-09T06:09:58.191Z,21.93
2022-12-09T06:11:32.665Z,23.80
2022-12-09T06:13:06.692Z,22.47
2022-12-09T06:14:39.953Z,23.83
2022-12-09T06:16:17.501Z,23.30
2022-12-09T06:17:51.180Z,27.50
2022-12-09T06:19:24.718Z,22.93
2022-12-09T06:20:57.988Z,24.73
2022-12-09T06:22:31.042Z,26.93
2022-12-09T06:24:06.257Z,24.53
2022-12-09T06:25:44.086Z,24.27
2022-12-09T06:27:17.781Z,24.10
2022-12-09T06:28:51.440Z,25.30
2022-12-09T06:30:24.705Z,25.57
2022-12-09T06:31:59.511Z,24.17
2022-12-09T06:35:26.107Z,21.80
2022-12-09T06:36:59.489Z,22.00
2022-12-09T06:38:32.948Z,22.60
2022-12-09T06:40:07.338Z,21.93
2022-12-09T06:41:42.387Z,20.60
2022-12-09T06:43:16.265Z,19.67
2022-12-09T06:44:49.490Z,20.90
2022-12-09T06:46:24.877Z,18.77
2022-12-09T06:48:00.189Z,21.50
2022-12-09T06:49:33.704Z,24.23
2022-12-09T06:51:07.514Z,21.20
2022-12-09T06:52:41.443Z,19.27
2022-12-09T06:54:14.753Z,19.63
2022-12-09T06:55:48.792Z,20.60
2022-12-09T06:57:22.288Z,18.53
2022-12-09T06:58:55.457Z,19.77
2022-12-09T07:00:29.198Z,17.47
2022-12-09T07:02:02.833Z,18.17
2022-12-09T07:03:37.569Z,29.50
2022-12-09T07:05:12.192Z,36.70
2022-12-09T07:06:47.130Z,38.40
2022-12-09T07:08:20.596Z,31.67
2022-12-09T07:09:54.147Z,33.97
2022-12-09T07:11:28.078Z,33.03
2022-12-09T07:13:01.730Z,33.83
2022-12-09T07:14:35.037Z,33.90
2022-12-09T07:16:08.851Z,32.30
2022-12-09T07:17:42.623Z,33.83
2022-12-09T07:19:20.037Z,31.93
2022-12-09T07:20:53.610Z,32.80
2022-12-09T07:22:27.106Z,32.40
2022-12-09T07:24:01.401Z,34.37
2022-12-09T07:25:34.921Z,32.70
2022-12-09T07:27:14.331Z,32.80
2022-12-09T07:28:51.305Z,32.87
2022-12-09T07:30:24.528Z,33.30
2022-12-09T07:31:57.897Z,31.20
2022-12-09T07:33:31.909Z,32.20
2022-12-09T07:35:08.281Z,33.10
2022-12-09T07:36:42.006Z,30.70
2022-12-09T07:38:15.253Z,33.33
2022-12-09T07:39:48.493Z,30.80
2022-12-09T07:41:21.768Z,31.10
2022-12-09T07:42:59.314Z,34.87
2022-12-09T07:44:33.130Z,32.73
2022-12-09T07:46:07.734Z,32.83
2022-12-09T07:47:41.021Z,34.30
2022-12-09T07:49:15.197Z,32.87
2022-12-09T07:50:49.767Z,34.00
2022-12-09T07:52:23.578Z,33.37
2022-12-09T07:53:57.900Z,32.77
2022-12-09T07:55:31.877Z,35.20
2022-12-09T07:57:05.119Z,29.93
2022-12-09T07:58:39.628Z,30.73
2022-12-09T08:00:14.732Z,30.20
2022-12-09T08:01:48.639Z,31.73
2022-12-09T08:03:22.325Z,32.33
2022-12-09T08:04:56.002Z,31.20
2022-12-09T08:06:32.197Z,34.10
2022-12-09T08:08:06.214Z,32.07
2022-12-09T08:09:39.688Z,30.70
2022-12-09T08:11:15.491Z,30.40
2022-12-09T08:12:48.775Z,31.87
2022-12-09T08:14:22.185Z,29.50
2022-12-09T08:15:55.826Z,27.70
2022-12-09T08:17:30.635Z,31.40
2022-12-09T08:19:04.533Z,29.83
2022-12-09T08:20:39.841Z,30.33
2022-12-09T08:22:14.719Z,32.97
2022-12-09T08:23:48.714Z,32.57
2022-12-09T08:25:22.370Z,31.87
2022-12-09T08:26:55.845Z,33.13
2022-12-09T08:28:30.691Z,31.63
2022-12-09T08:30:05.437Z,32.03
2022-12-09T08:31:41.929Z,31.63
2022-12-09T08:33:15.793Z,29.20
2022-12-09T08:34:49.135Z,29.90
2022-12-09T08:36:24.194Z,26.77
2022-12-09T08:37:58.970Z,27.43
2022-12-09T08:39:32.406Z,27.60
2022-12-09T08:41:11.235Z,27.87
2022-12-09T08:42:44.570Z,28.03
2022-12-09T08:44:20.282Z,27.33
2022-12-09T08:45:53.941Z,23.90
2022-12-09T08:47:27.857Z,23.13
2022-12-09T08:49:02.031Z,24.77
2022-12-09T08:50:35.667Z,23.40
2022-12-09T08:52:09.526Z,21.47
2022-12-09T08:53:44.323Z,23.03
2022-12-09T08:55:17.640Z,20.90
2022-12-09T08:56:53.647Z,23.87
2022-12-09T08:58:27.180Z,24.67
2022-12-09T09:00:00.539Z,20.73
2022-12-09T09:01:35.897Z,22.07
2022-12-09T09:03:10.740Z,25.17
2022-12-09T09:04:44.565Z,24.50
2022-12-09T09:06:19.191Z,29.73
2022-12-09T09:07:52.676Z,26.23
2022-12-09T09:09:27.932Z,29.37
2022-12-09T09:11:01.843Z,29.37
2022-12-09T09:12:42.014Z,28.27
2022-12-09T09:14:16.872Z,28.70
2022-12-09T09:15:50.474Z,26.87
2022-12-09T09:17:24.730Z,29.57
2022-12-09T09:18:58.343Z,30.00
2022-12-09T09:20:31.682Z,27.80
2022-12-09T09:22:04.981Z,28.20
2022-12-09T09:23:38.757Z,27.47
2022-12-09T09:25:13.909Z,30.33
2022-12-09T09:26:48.526Z,26.50
2022-12-09T09:28:26.004Z,28.33
2022-12-09T09:30:02.367Z,27.17
2022-12-09T09:31:35.837Z,30.07
2022-12-09T09:33:09.837Z,28.60
2022-12-09T09:34:45.943Z,28.70
2022-12-09T09:36:22.577Z,27.13
2022-12-09T09:37:56.162Z,29.40
2022-12-09T09:39:29.431Z,31.47
2022-12-09T09:41:18.053Z,26.00
2022-12-09T09:42:53.543Z,31.07
2022-12-09T09:44:32.583Z,30.43
2022-12-09T09:46:07.147Z,31.73
2022-12-09T09:47:46.259Z,29.27
2022-12-09T09:49:23.959Z,31.00
2022-12-09T09:51:03.724Z,28.83
2022-12-09T09:52:42.796Z,29.10
2022-12-09T09:54:17.454Z,29.80
2022-12-09T09:55:57.668Z,29.10
2022-12-09T09:57:39.150Z,33.63
2022-12-09T09:59:22.167Z,31.70
2022-12-09T10:01:03.317Z,29.30
2022-12-09T10:02:50.415Z,31.17
2022-12-09T10:04:35.630Z,28.03
2022-12-09T10:06:18.613Z,30.07
2022-12-09T10:07:56.396Z,32.97
2022-12-09T10:09:40.402Z,30.47
2022-12-09T10:11:20.025Z,33.33
2022-12-09T10:13:17.892Z,26.83
2022-12-09T10:14:58.092Z,24.77
2022-12-09T10:16:42.772Z,24.43
2022-12-09T10:18:21.930Z,25.77
2022-12-09T10:20:00.041Z,27.53
2022-12-09T10:21:34.740Z,29.23
2022-12-09T10:23:13.721Z,23.87
2022-12-09T10:24:50.263Z,27.90
2022-12-09T10:26:27.458Z,25.07
2022-12-09T10:28:08.169Z,24.53
2022-12-09T10:29:51.412Z,24.63
2022-12-09T10:31:25.917Z,26.37
2022-12-09T10:32:59.713Z,21.23
2022-12-09T10:34:33.056Z,21.10
2022-12-09T10:36:07.773Z,23.10
2022-12-09T10:37:41.050Z,22.17
2022-12-09T10:39:16.656Z,23.67
2022-12-09T10:41:00.561Z,23.20
2022-12-09T10:43:03.615Z,23.80
2022-12-09T10:44:38.912Z,23.57
2022-12-09T10:46:19.209Z,19.70
2022-12-09T10:47:53.943Z,23.07
2022-12-09T10:49:27.360Z,19.80
2022-12-09T10:51:04.251Z,19.03
2022-12-09T10:52:45.372Z,20.77
2022-12-09T10:54:35.160Z,22.97
2022-12-09T10:56:09.250Z,20.27
2022-12-09T10:57:42.663Z,21.30
2022-12-09T10:59:21.032Z,20.53
2022-12-09T11:01:09.586Z,22.47
2022-12-09T11:02:52.231Z,21.63
2022-12-09T11:04:27.660Z,22.73
2022-12-09T11:06:05.747Z,21.70
2022-12-09T11:07:40.044Z,20.33
2022-12-09T11:09:24.258Z,20.10
2022-12-09T11:10:57.968Z,20.37
2022-12-09T11:12:40.153Z,20.43
2022-12-09T11:14:24.083Z,22.93
2022-12-09T11:16:01.431Z,21.13
2022-12-09T11:17:39.135Z,24.20
2022-12-09T11:19:15.300Z,23.07
2022-12-09T11:20:57.895Z,24.87
2022-12-09T11:22:36.414Z,24.83
2022-12-09T11:24:22.130Z,25.07
2022-12-09T11:25:59.400Z,24.63
2022-12-09T11:27:35.482Z,23.67
2022-12-09T11:29:18.624Z,25.80
2022-12-09T11:33:08.079Z,26.13
2022-12-09T11:34:47.817Z,24.77
2022-12-09T11:36:24.966Z,28.90
2022-12-09T11:38:15.909Z,24.23
2022-12-09T11:39:51.175Z,27.37
2022-12-09T11:41:45.241Z,27.07
2022-12-09T11:43:18.425Z,27.87
2022-12-09T11:44:58.809Z,25.53
2022-12-09T11:46:33.368Z,26.53
2022-12-09T11:48:27.933Z,23.40
2022-12-09T11:50:16.281Z,25.93
2022-12-09T11:52:02.539Z,27.03
2022-12-09T11:53:41.031Z,25.30
2022-12-09T11:55:20.313Z,28.53
2022-12-09T11:56:55.078Z,28.03
2022-12-09T11:58:31.954Z,25.87
2022-12-09T12:00:15.389Z,26.80
2022-12-09T12:01:54.863Z,29.60
2022-12-09T12:03:37.769Z,26.37
2022-12-09T12:05:21.817Z,26.60
2022-12-09T12:07:00.518Z,27.90
2022-12-09T12:08:38.651Z,25.47
2022-12-09T12:10:19.742Z,24.23
2022-12-09T12:12:14.608Z,24.73
2022-12-09T12:13:49.505Z,26.33
2022-12-09T12:15:27.537Z,24.80
2022-12-09T12:17:09.474Z,24.67
2022-12-09T12:18:48.803Z,28.47
2022-12-09T12:20:26.862Z,25.37
2022-12-09T12:22:23.643Z,21.43
2022-12-09T12:24:21.478Z,25.57
2022-12-09T12:26:03.078Z,21.90
2022-12-09T12:27:46.617Z,24.17
2022-12-09T12:29:32.783Z,22.10
2022-12-09T12:31:18.965Z,23.67
2022-12-09T12:33:52.860Z,21.70
2022-12-09T12:35:22.912Z,24.60
2022-12-09T12:37:07.763Z,21.07
2022-12-09T12:39:04.616Z,23.27
2022-12-09T12:40:43.131Z,28.27
2022-12-09T12:42:28.853Z,22.93
2022-12-09T12:44:33.027Z,26.07
2022-12-09T12:46:23.719Z,25.60
2022-12-09T12:48:07.618Z,24.57
2022-12-09T12:50:16.388Z,23.07
2022-12-09T12:52:00.330Z,23.33
2022-12-09T12:53:39.972Z,24.10
2022-12-09T12:55:22.428Z,26.07
2022-12-09T12:57:09.442Z,25.20
2022-12-09T12:59:03.051Z,27.07
2022-12-09T13:00:48.359Z,27.00
2022-12-09T13:02:34.029Z,25.13
2022-12-09T13:04:20.546Z,26.37
2022-12-09T13:05:58.581Z,26.23
2022-12-09T13:07:39.452Z,26.77
2022-12-09T13:09:18.893Z,27.63
2022-12-09T13:10:54.988Z,25.33
2022-12-09T13:12:44.469Z,28.00
2022-12-09T13:14:22.896Z,27.40
2022-12-09T13:16:00.352Z,26.47
2022-12-09T13:17:33.926Z,26.17
2022-12-09T13:19:13.752Z,28.03
2022-12-09T13:20:50.016Z,27.87
2022-12-09T13:22:31.077Z,30.77
2022-12-09T13:24:11.135Z,28.83
2022-12-09T13:25:51.772Z,29.20
2022-12-09T13:27:34.668Z,28.50
2022-12-09T13:29:18.209Z,26.90
2022-12-09T13:30:55.747Z,26.93
2022-12-09T13:32:46.779Z,26.77
2022-12-09T13:34:27.898Z,24.10
2022-12-09T13:36:06.900Z,27.17
2022-12-09T13:37:59.534Z,26.37
2022-12-09T13:39:58.884Z,27.63
2022-12-09T13:41:57.901Z,31.13
2022-12-09T13:43:33.713Z,27.07
2022-12-09T13:45:14.572Z,25.87
2022-12-09T13:46:48.125Z,26.17
2022-12-09T13:48:47.094Z,27.30
2022-12-09T13:50:27.440Z,28.20
2022-12-09T13:52:00.662Z,27.33
2022-12-09T13:53:40.082Z,26.17
2022-12-09T13:55:40.733Z,28.47
2022-12-09T13:57:21.301Z,24.23
2022-12-09T13:59:20.898Z,29.43
2022-12-09T14:01:09.678Z,29.30
2022-12-09T14:02:53.905Z,29.87
2022-12-09T14:04:29.144Z,26.10
2022-12-09T14:06:07.724Z,28.77
2022-12-09T14:07:43.638Z,27.20
2022-12-09T14:09:34.165Z,26.77
2022-12-09T14:11:40.342Z,25.10
2022-12-09T14:13:24.619Z,25.50
2022-12-09T14:14:58.829Z,23.53
2022-12-09T14:16:36.047Z,25.97
2022-12-09T14:18:32.844Z,23.80
2022-12-09T14:20:19.347Z,24.00
2022-12-09T14:22:25.715Z,28.03
2022-12-09T14:24:35.374Z,22.13
2022-12-09T14:26:09.770Z,25.00
2022-12-09T14:28:20.566Z,27.03
2022-12-09T14:29:56.297Z,23.80
2022-12-09T14:31:56.866Z,24.93
2022-12-09T14:33:32.963Z,25.63
2022-12-09T14:35:23.768Z,23.83
2022-12-09T14:37:30.889Z,24.17
2022-12-09T14:39:29.904Z,26.50
2022-12-09T14:41:19.262Z,23.73
2022-12-09T14:42:59.786Z,24.03
2022-12-09T14:44:38.048Z,23.07
2022-12-09T14:46:22.995Z,24.80
2022-12-09T14:47:57.184Z,24.37
2022-12-09T14:49:31.088Z,21.67
2022-12-09T14:51:22.977Z,25.10
2022-12-09T14:52:58.651Z,22.93
2022-12-09T14:54:34.122Z,24.70
2022-12-09T14:56:09.449Z,24.13
2022-12-09T14:57:47.567Z,22.30
2022-12-09T14:59:22.559Z,24.13
2022-12-09T15:01:02.153Z,26.57
2022-12-09T15:02:35.414Z,22.37
2022-12-09T15:04:08.764Z,26.27
2022-12-09T15:05:41.930Z,25.77
2022-12-09T15:07:16.951Z,25.67
2022-12-09T15:08:54.232Z,26.30
2022-12-09T15:10:33.821Z,26.43
2022-12-09T15:12:12.152Z,27.83
2022-12-09T15:13:47.818Z,24.37
2022-12-09T15:15:24.596Z,25.50
2022-12-09T15:16:58.866Z,27.33
2022-12-09T15:18:32.759Z,27.13
2022-12-09T15:20:07.706Z,26.60
2022-12-09T15:21:40.810Z,26.03
2022-12-09T15:23:19.995Z,24.13
2022-12-09T15:24:53.922Z,26.50
2022-12-09T15:26:29.334Z,28.17
2022-12-09T15:28:06.918Z,25.97
2022-12-09T15:29:39.983Z,30.53
2022-12-09T15:31:19.735Z,23.83
2022-12-09T15:32:52.865Z,26.00
2022-12-09T15:34:26.770Z,24.17
2022-12-09T15:36:03.018Z,26.67
2022-12-09T15:37:36.085Z,28.10
2022-12-09T15:39:13.459Z,27.53
2022-12-09T15:41:02.487Z,29.07
2022-12-09T15:42:39.525Z,29.20
2022-12-09T15:44:17.353Z,25.10
2022-12-09T15:45:50.818Z,28.67
2022-12-09T15:47:30.486Z,26.13
2022-12-09T15:49:05.172Z,28.77
2022-12-09T15:50:42.914Z,34.27
2022-12-09T15:52:20.916Z,234.43
2022-12-09T15:53:58.184Z,102.73
2022-12-09T15:55:37.730Z,66.73
2022-12-09T15:57:14.824Z,51.30
2022-12-09T15:58:51.156Z,35.10
2022-12-09T16:00:25.852Z,32.37
2022-12-09T16:02:00.436Z,32.60
2022-12-09T16:03:35.572Z,35.00
2022-12-09T16:05:11.247Z,30.50
2022-12-09T16:06:44.330Z,30.93
2022-12-09T16:08:17.542Z,33.57
2022-12-09T16:10:12.791Z,33.27
2022-12-09T16:11:48.461Z,31.90
2022-12-09T16:13:22.260Z,32.17
2022-12-09T16:14:55.691Z,31.50
2022-12-09T16:16:40.262Z,34.13
2022-12-09T16:18:18.305Z,32.33
2022-12-09T16:19:51.787Z,35.37
2022-12-09T16:21:28.742Z,33.87
2022-12-09T16:23:02.462Z,34.00
2022-12-09T16:25:06.209Z,32.13
2022-12-09T16:26:35.237Z,33.10
2022-12-09T16:28:08.402Z,37.03
2022-12-09T16:29:47.937Z,34.27
2022-12-09T16:31:22.457Z,34.03
2022-12-09T16:32:58.671Z,36.80
2022-12-09T16:34:31.884Z,36.53
2022-12-09T16:36:07.542Z,36.10
2022-12-09T16:37:42.820Z,36.67
2022-12-09T16:39:35.722Z,37.70
2022-12-09T16:41:11.814Z,36.50
2022-12-09T16:42:45.085Z,34.87
2022-12-09T16:44:20.502Z,38.87
2022-12-09T16:45:55.060Z,39.20
2022-12-09T16:47:29.144Z,41.03
2022-12-09T16:49:05.199Z,37.90
2022-12-09T16:50:43.022Z,35.90
2022-12-09T16:52:17.997Z,41.10
2022-12-09T16:53:53.482Z,37.93
2022-12-09T16:55:28.757Z,37.87
2022-12-09T16:57:01.906Z,39.93
2022-12-09T16:58:35.909Z,37.07
2022-12-09T17:00:10.802Z,39.40
2022-12-09T17:01:44.045Z,38.13
2022-12-09T17:03:23.661Z,38.23
2022-12-09T17:04:58.277Z,37.17
2022-12-09T17:06:31.583Z,39.70
2022-12-09T17:08:05.115Z,36.87
2022-12-09T17:09:38.219Z,39.73
2022-12-09T17:11:12.059Z,39.40
2022-12-09T17:12:45.549Z,41.23
2022-12-09T17:14:18.990Z,42.50
2022-12-09T17:15:52.967Z,45.80
2022-12-09T17:17:26.178Z,39.23
2022-12-09T17:18:59.338Z,37.83
2022-12-09T17:20:33.942Z,39.30
2022-12-09T17:22:07.184Z,40.03
2022-12-09T17:23:40.991Z,38.50
2022-12-09T17:25:14.676Z,38.23
2022-12-09T17:26:47.830Z,36.53
2022-12-09T17:28:22.214Z,36.00
2022-12-09T17:29:57.874Z,38.43
2022-12-09T17:31:31.512Z,37.97
2022-12-09T17:33:04.733Z,40.33
2022-12-09T17:34:37.905Z,36.90
2022-12-09T17:36:13.300Z,38.07
2022-12-09T17:37:46.727Z,41.73
2022-12-09T17:39:20.322Z,40.23
2022-12-09T17:40:53.397Z,35.40
2022-12-09T17:42:26.448Z,39.03
2022-12-09T17:44:02.093Z,35.93
2022-12-09T17:45:41.732Z,37.87
2022-12-09T17:47:15.284Z,41.07
2022-12-09T17:48:48.353Z,36.93
2022-12-09T17:50:21.487Z,39.03
2022-12-09T17:51:55.903Z,39.47
2022-12-09T17:53:28.981Z,37.87
2022-12-09T17:55:02.045Z,38.23
2022-12-09T17:56:35.637Z,36.93
2022-12-09T17:58:08.682Z,38.65
2022-12-09T17:59:41.800Z,41.97
2022-12-09T18:01:16.863Z,38.97
2022-12-09T18:02:50.213Z,41.30
2022-12-09T18:04:23.287Z,65.60
2022-12-09T18:05:59.257Z,87.10
2022-12-09T18:07:33.750Z,60.75
2022-12-09T18:09:09.069Z,44.72
2022-12-09T18:10:42.261Z,46.78
2022-12-09T18:12:15.387Z,48.97
2022-12-09T18:13:48.434Z,43.75
2022-12-09T18:15:21.541Z,43.05
2022-12-09T18:16:54.650Z,43.38
2022-12-09T18:18:29.330Z,43.22
2022-12-09T18:20:02.621Z,42.67
2022-12-09T18:21:35.710Z,36.42
2022-12-09T18:23:11.981Z,39.10
2022-12-09T18:24:45.022Z,37.93
2022-12-09T18:26:19.669Z,37.60
2022-12-09T18:27:52.718Z,38.60
2022-12-09T18:29:26.514Z,37.90
2022-12-09T18:30:59.725Z,37.07
2022-12-09T18:32:36.019Z,36.37
2022-12-09T18:34:09.422Z,38.85
2022-12-09T18:35:42.584Z,38.03
2022-12-09T18:37:15.756Z,35.40
2022-12-09T18:38:50.260Z,34.60
2022-12-09T18:40:23.389Z,39.60
2022-12-09T18:41:56.520Z,34.87
2022-12-09T18:43:30.515Z,31.90
2022-12-09T18:45:03.639Z,32.73
2022-12-09T18:46:39.175Z,34.70
2022-12-09T18:48:12.340Z,34.47
2022-12-09T18:49:45.471Z,33.20
2022-12-09T18:51:20.906Z,30.97
2022-12-09T18:52:54.036Z,32.53
2022-12-09T18:54:32.267Z,33.83
2022-12-09T18:56:05.916Z,34.97
2022-12-09T18:57:39.036Z,29.50
2022-12-09T18:59:12.296Z,30.13
2022-12-09T19:00:45.564Z,31.93
2022-12-09T19:02:18.683Z,31.53
2022-12-09T19:03:53.278Z,33.23
2022-12-09T19:05:26.754Z,28.23
2022-12-09T19:07:00.968Z,29.50
2022-12-09T19:08:34.018Z,32.87
2022-12-09T19:10:09.032Z,30.63
2022-12-09T19:11:43.824Z,31.47
2022-12-09T19:13:16.909Z,33.17
2022-12-09T19:14:49.954Z,30.37
2022-12-09T19:16:23.990Z,29.43
2022-12-09T19:17:57.150Z,34.93
2022-12-09T19:19:30.651Z,39.67
2022-12-09T19:21:13.815Z,36.73
2022-12-09T19:22:46.901Z,36.73
2022-12-09T19:24:22.343Z,37.67
2022-12-09T19:25:56.772Z,31.93
2022-12-09T19:27:29.849Z,37.13
2022-12-09T19:29:03.526Z,34.13
2022-12-09T19:30:36.592Z,33.73
2022-12-09T19:32:29.378Z,55.80
2022-12-09T19:34:04.568Z,42.20
2022-12-09T19:35:37.810Z,48.37
2022-12-09T19:37:11.187Z,37.10
2022-12-09T19:38:44.307Z,40.17
2022-12-09T19:40:18.632Z,47.37
2022-12-09T19:41:53.383Z,33.13
2022-12-09T19:43:26.425Z,33.47
2022-12-09T19:45:02.444Z,32.60
2022-12-09T19:46:38.435Z,35.43
2022-12-09T19:48:11.677Z,32.87
2022-12-09T19:49:44.878Z,35.23
2022-12-09T19:51:19.180Z,34.00
2022-12-09T19:52:52.299Z,34.73
2022-12-09T19:54:28.818Z,33.60
2022-12-09T19:56:03.426Z,34.40
2022-12-09T19:57:37.892Z,35.67
2022-12-09T19:59:11.866Z,36.50
2022-12-09T20:00:44.952Z,36.90
2022-12-09T20:02:18.015Z,37.90
2022-12-09T20:03:56.726Z,38.27
2022-12-09T20:05:29.806Z,34.53
2022-12-09T20:07:07.683Z,35.23
2022-12-09T20:08:41.470Z,32.63
2022-12-09T20:10:14.810Z,36.27
2022-12-09T20:11:47.912Z,34.40
2022-12-09T20:13:24.208Z,34.90
2022-12-09T20:15:00.407Z,34.23
2022-12-09T20:16:33.824Z,36.53
2022-12-09T20:18:07.577Z,33.83
2022-12-09T20:19:40.630Z,34.27
2022-12-09T20:21:14.755Z,36.20
2022-12-09T20:22:47.816Z,35.27
2022-12-09T20:24:20.946Z,33.23
2022-12-09T20:25:54.005Z,32.73
2022-12-09T20:27:27.107Z,34.90
2022-12-09T20:29:05.971Z,33.53
2022-12-09T20:30:38.993Z,36.50
2022-12-09T20:32:12.534Z,33.70
2022-12-09T20:33:45.657Z,33.93
2022-12-09T20:35:18.973Z,33.33
2022-12-09T20:36:52.088Z,31.57
2022-12-09T20:38:25.189Z,35.10
2022-12-09T20:39:58.244Z,34.33
2022-12-09T20:41:31.508Z,34.20
2022-12-09T20:43:04.673Z,33.97
2022-12-09T20:44:39.135Z,34.33
2022-12-09T20:46:14.227Z,33.90
2022-12-09T20:47:47.384Z,33.40
2022-12-09T20:49:26.201Z,35.40
2022-12-09T20:50:59.368Z,34.83
2022-12-09T20:52:32.427Z,35.37